Time;durP1;ratioP1;P1;durP2;ratioP2;P2;SDS_P1;SDS_P2;PMS_P1;PMS_P2;Temp;Humidity;BMP_temperature;BMP_pressure;BME280_temperature;BME280_humidity;BME280_pressure;Samples;Min_cycle;Max_cycle;Signal;HPM_P1;HPM_P2
2022/05/11 00:01:30;;;;;;;7.32;3.88;;;15.80;96.20;;;;;;5080419;28;19939;-65
2022/05/11 00:03:57;;;;;;;10.88;4.10;;;15.70;96.70;;;;;;5081829;28;20090;-64
2022/05/11 00:06:23;;;;;;;6.30;4.38;;;15.70;96.50;;;;;;5081566;28;20048;-66
2022/05/11 00:08:48;;;;;;;;;;;15.70;97.00;;;;;;5082347;28;20040;-65
2022/05/11 00:11:15;;;;;;;7.72;4.60;;;15.60;97.80;;;;;;5079029;28;20653;-65
2022/05/11 00:13:41;;;;;;;12.18;4.32;;;15.60;97.50;;;;;;5080599;28;20032;-65
2022/05/11 00:16:07;;;;;;;7.20;4.40;;;15.60;97.60;;;;;;5081163;28;20032;-65
2022/05/11 00:18:32;;;;;;;;;;;15.50;98.30;;;;;;5069950;28;20039;-65
2022/05/11 00:20:58;;;;;;;9.70;4.47;;;15.50;98.80;;;;;;5066689;28;19916;-65
2022/05/11 00:23:24;;;;;;;;;;;15.50;98.50;;;;;;5067809;28;20044;-65
2022/05/11 00:25:49;;;;;;;8.70;4.43;;;15.50;99.20;;;;;;5064783;28;19925;-66
2022/05/11 00:28:15;;;;;;;;;;;15.50;99.40;;;;;;5063970;28;20032;-64
2022/05/11 00:30:41;;;;;;;8.88;4.15;;;15.40;99.70;;;;;;5065798;28;19928;-66
2022/05/11 00:33:06;;;;;;;;;;;15.40;99.90;;;;;;5067418;28;20097;-65
2022/05/11 00:35:34;;;;;;;15.43;5.28;;;15.40;99.90;;;;;;5063019;28;19917;-63
2022/05/11 00:38:01;;;;;;;9.70;4.68;;;15.20;99.90;;;;;;5067478;28;20068;-65
2022/05/11 00:40:27;;;;;;;7.25;4.50;;;15.20;99.90;;;;;;5065996;28;20109;-67
2022/05/11 00:42:52;;;;;;;;;;;15.20;99.90;;;;;;5066993;28;20298;-65
2022/05/11 00:45:19;;;;;;;7.63;5.03;;;15.20;99.90;;;;;;5067345;28;19920;-65
2022/05/11 00:48:01;;;;;;;5.70;4.00;;;15.20;99.90;;;;;;5066764;28;20734;-64
2022/05/11 00:50:34;;;;;;;8.27;5.38;;;15.30;99.90;;;;;;5067026;28;20048;-65
2022/05/11 00:53:11;;;;;;;9.15;4.53;;;15.20;99.90;;;;;;5067743;28;20037;-65
2022/05/11 00:55:43;;;;;;;12.32;4.25;;;15.30;99.70;;;;;;5066817;28;20480;-65
2022/05/11 00:58:32;;;;;;;9.65;5.05;;;15.30;99.40;;;;;;5065443;28;20521;-65
2022/05/11 01:00:58;;;;;;;7.35;5.05;;;15.30;99.50;;;;;;5043652;28;20035;-66
2022/05/11 01:03:30;;;;;;;8.85;4.18;;;15.30;99.70;;;;;;5044233;28;20045;-65
2022/05/11 01:05:57;;;;;;;10.52;4.75;;;15.30;99.50;;;;;;5045875;28;20053;-66
2022/05/11 01:08:24;;;;;;;6.15;4.53;;;15.30;99.60;;;;;;5046785;28;20446;-66
2022/05/11 01:10:50;;;;;;;14.13;4.78;;;15.30;99.90;;;;;;5045531;28;20037;-67
2022/05/11 01:13:17;;;;;;;;;;;15.30;99.80;;;;;;5046638;28;20120;-65
2022/05/11 01:15:46;;;;;;;9.05;4.28;;;15.30;99.90;;;;;;5047018;28;19920;-65
2022/05/11 01:18:12;;;;;;;12.23;4.90;;;15.30;99.90;;;;;;5045933;28;20051;-66
2022/05/11 01:20:38;;;;;;;;;;;15.30;99.90;;;;;;5046355;28;20127;-64
2022/05/11 01:23:03;;;;;;;12.77;5.32;;;15.30;99.90;;;;;;5046254;28;19917;-66
2022/05/11 01:25:30;;;;;;;;;;;15.30;99.90;;;;;;5046159;28;20037;-66
2022/05/11 01:28:11;;;;;;;20.50;4.63;;;15.20;99.90;;;;;;5046446;28;20403;-66
2022/05/11 01:30:39;;;;;;;8.57;4.32;;;15.20;99.90;;;;;;5041405;28;20044;-65
2022/05/11 01:33:06;;;;;;;11.52;5.22;;;15.20;99.90;;;;;;5046003;28;20115;-65
2022/05/11 01:35:57;;;;;;;6.88;4.90;;;15.20;99.90;;;;;;5045838;28;20128;-66
2022/05/11 01:38:37;;;;;;;7.65;4.68;;;15.20;99.90;;;;;;5045499;28;20467;-66
2022/05/11 01:41:03;;;;;;;8.43;4.97;;;15.10;99.90;;;;;;5061168;28;20087;-66
2022/05/11 01:43:34;;;;;;;8.05;5.18;;;15.10;99.90;;;;;;5045899;28;20044;-66
2022/05/11 01:46:01;;;;;;;12.10;5.32;;;15.10;99.90;;;;;;5061243;28;20073;-66
2022/05/11 01:48:26;;;;;;;8.05;4.90;;;15.10;99.90;;;;;;5046349;28;20069;-66
2022/05/11 01:50:52;;;;;;;;;;;15.00;99.90;;;;;;5045689;28;20471;-66
2022/05/11 01:53:18;;;;;;;10.45;5.05;;;14.90;99.90;;;;;;5045495;28;19921;-66
2022/05/11 01:55:44;;;;;;;;;;;14.80;99.90;;;;;;5046157;28;20049;-66
2022/05/11 01:58:11;;;;;;;12.45;5.32;;;14.80;99.90;;;;;;5045225;28;19956;-66
2022/05/11 02:00:38;;;;;;;9.15;5.40;;;14.80;99.90;;;;;;5044282;28;20187;-64
2022/05/11 02:03:04;;;;;;;6.78;4.75;;;14.80;99.90;;;;;;5045546;28;20047;-67
2022/05/11 02:08:15;;;;;;;10.98;5.05;;;14.70;99.90;;;;;;5044761;28;19925;-66
2022/05/11 02:10:40;;;;;;;12.45;5.30;;;14.70;99.90;;;;;;5044823;28;20041;-66
2022/05/11 02:13:06;;;;;;;;;;;14.80;99.90;;;;;;5046321;28;20037;-66
2022/05/11 02:15:32;;;;;;;15.48;5.70;;;14.70;99.90;;;;;;5045572;28;20307;-65
2022/05/11 02:17:57;;;;;;;;;;;14.70;99.90;;;;;;5046102;28;20044;-66
2022/05/11 02:20:24;;;;;;;8.23;5.28;;;14.60;99.90;;;;;;5044640;28;20351;-66
2022/05/11 02:22:51;;;;;;;7.20;5.25;;;14.60;99.90;;;;;;5024822;28;20045;-66
2022/05/11 02:25:18;;;;;;;6.10;4.80;;;14.60;99.90;;;;;;5044040;28;20064;-65
2022/05/11 02:27:45;;;;;;;7.18;5.45;;;14.50;99.90;;;;;;5044557;28;20420;-66
2022/05/11 02:30:15;;;;;;;7.72;5.10;;;14.50;99.90;;;;;;5044805;28;20073;-64
2022/05/11 02:32:41;;;;;;;11.15;5.75;;;14.50;99.90;;;;;;5043887;28;20045;-64
2022/05/11 02:35:12;;;;;;;;;;;14.60;99.90;;;;;;5050395;28;20037;-65
2022/05/11 02:37:54;;;;;;;9.95;5.10;;;14.60;99.90;;;;;;5044482;28;20015;-64
2022/05/11 02:40:23;;;;;;;8.65;5.32;;;14.50;99.90;;;;;;5060453;28;20052;-66
2022/05/11 02:42:48;;;;;;;11.02;5.53;;;14.50;99.90;;;;;;5062473;28;20098;-65
2022/05/11 02:45:15;;;;;;;;;;;14.50;99.90;;;;;;5048440;28;20412;-66
2022/05/11 02:47:52;;;;;;;9.00;5.15;;;14.40;99.90;;;;;;5044499;28;20380;-64
2022/05/11 02:50:29;;;;;;;8.27;5.57;;;14.40;99.90;;;;;;5049293;28;20511;-64
2022/05/11 02:52:59;;;;;;;8.55;5.95;;;14.40;99.90;;;;;;5044504;28;20080;-64
2022/05/11 02:55:32;;;;;;;7.90;5.20;;;14.40;99.90;;;;;;5049472;28;20396;-65
2022/05/11 02:58:00;;;;;;;10.82;4.93;;;14.40;99.90;;;;;;5044678;28;20078;-64
2022/05/11 03:00:26;;;;;;;9.80;5.55;;;14.40;99.90;;;;;;5043825;28;20075;-65
2022/05/11 03:02:52;;;;;;;;;;;14.30;99.90;;;;;;5064589;28;20079;-64
2022/05/11 03:05:21;;;;;;;14.33;5.63;;;14.40;99.90;;;;;;5060149;28;20869;-65
2022/05/11 03:07:47;;;;;;;10.65;5.45;;;14.40;99.90;;;;;;5044854;28;20288;-65
2022/05/11 03:10:16;;;;;;;;;;;14.30;99.90;;;;;;5052469;28;20094;-65
2022/05/11 03:12:44;;;;;;;14.02;5.75;;;14.30;99.90;;;;;;5063847;28;19930;-65
2022/05/11 03:15:18;;;;;;;10.00;5.40;;;14.40;99.90;;;;;;5060464;28;20041;-65
2022/05/11 03:17:51;;;;;;;10.93;5.55;;;14.40;99.90;;;;;;5064329;28;20040;-65
2022/05/11 03:20:23;;;;;;;11.52;5.85;;;14.30;99.90;;;;;;5059418;28;20066;-65
2022/05/11 03:22:55;;;;;;;7.05;5.20;;;14.30;99.90;;;;;;5050706;28;20060;-65
2022/05/11 03:25:35;;;;;;;8.00;5.88;;;14.30;99.90;;;;;;5054539;28;20037;-65
2022/05/11 03:28:01;;;;;;;11.43;6.28;;;14.20;99.90;;;;;;5048334;28;20045;-65
2022/05/11 03:30:29;;;;;;;8.65;6.10;;;14.20;99.90;;;;;;5048910;28;21173;-65
2022/05/11 03:35:45;;;;;;;18.15;6.63;;;14.20;99.90;;;;;;5059287;28;20671;-65
2022/05/11 03:38:13;;;;;;;10.13;5.70;;;14.20;99.90;;;;;;5064515;28;20040;-65
2022/05/11 03:40:41;;;;;;;10.38;6.40;;;14.10;99.90;;;;;;5051084;28;20151;-64
2022/05/11 03:43:07;;;;;;;;;;;14.10;99.90;;;;;;5044718;28;20574;-64
2022/05/11 03:45:38;;;;;;;9.48;5.07;;;14.10;99.90;;;;;;5049235;28;19921;-63
2022/05/11 03:48:07;;;;;;;7.40;5.60;;;14.10;99.90;;;;;;5043902;28;20037;-65
2022/05/11 03:50:45;;;;;;;12.10;7.38;;;14.20;99.90;;;;;;5046825;28;20139;-65
2022/05/11 03:53:13;;;;;;;6.80;5.80;;;14.20;99.90;;;;;;5035916;28;20398;-65
2022/05/11 03:55:50;;;;;;;8.52;5.05;;;14.20;99.90;;;;;;5042362;28;20052;-64
2022/05/11 03:58:16;;;;;;;7.82;5.05;;;14.20;99.90;;;;;;5039209;28;20901;-65
2022/05/11 04:00:50;;;;;;;5.75;4.63;;;14.20;99.90;;;;;;5058693;28;20039;-65
2022/05/11 04:03:21;;;;;;;6.22;4.78;;;14.30;99.90;;;;;;5044571;28;20130;-65
2022/05/11 04:05:58;;;;;;;8.10;4.80;;;14.30;99.90;;;;;;5043677;28;20049;-65
2022/05/11 04:08:26;;;;;;;6.40;4.47;;;14.30;99.90;;;;;;5047109;28;20405;-64
2022/05/11 04:10:51;;;;;;;10.88;4.80;;;14.50;99.90;;;;;;5051690;28;20044;-66
2022/05/11 04:13:17;;;;;;;;;;;14.50;99.90;;;;;;5048465;28;20029;-65
2022/05/11 04:15:42;;;;;;;7.78;4.85;;;14.60;99.90;;;;;;5048153;28;19925;-63
2022/05/11 04:18:08;;;;;;;;;;;14.80;99.90;;;;;;5047147;28;20499;-66
2022/05/11 04:20:33;;;;;;;16.33;5.38;;;14.80;99.90;;;;;;5047760;28;19927;-66
2022/05/11 04:22:59;;;;;;;;;;;14.90;99.90;;;;;;5068814;28;20044;-65
2022/05/11 04:25:24;;;;;;;5.97;4.20;;;15.00;99.90;;;;;;5052764;28;19932;-66
2022/05/11 04:27:50;;;;;;;;;;;15.10;99.90;;;;;;5047240;28;20519;-63
2022/05/11 04:30:18;;;;;;;8.88;3.95;;;15.20;99.90;;;;;;5045476;28;19940;-64
2022/05/11 04:32:43;;;;;;;12.05;3.58;;;15.30;99.90;;;;;;5046094;28;20047;-64
2022/05/11 04:35:09;;;;;;;;;;;15.40;99.90;;;;;;5050125;28;20033;-64
2022/05/11 04:37:36;;;;;;;6.53;4.35;;;15.50;99.90;;;;;;5050503;28;19921;-64
2022/05/11 04:40:02;;;;;;;5.15;4.20;;;15.50;99.90;;;;;;5046190;28;20075;-65
2022/05/11 04:42:28;;;;;;;10.70;4.28;;;15.60;99.90;;;;;;5068835;28;20051;-65
2022/05/11 04:44:53;;;;;;;;;;;15.60;99.90;;;;;;5046232;28;20413;-64
2022/05/11 04:47:19;;;;;;;6.10;4.28;;;15.60;99.90;;;;;;5058876;28;19999;-64
2022/05/11 04:49:45;;;;;;;16.85;4.60;;;15.70;99.90;;;;;;5051475;28;20056;-65
2022/05/11 04:52:15;;;;;;;;;;;15.70;99.90;;;;;;5056606;28;20041;-64
2022/05/11 04:54:44;;;;;;;10.95;4.20;;;15.70;99.90;;;;;;5062340;28;20320;-64
2022/05/11 04:57:10;;;;;;;7.50;4.20;;;15.80;99.90;;;;;;5047766;28;20127;-64
2022/05/11 04:59:38;;;;;;;7.78;4.07;;;15.80;99.90;;;;;;5046348;28;20041;-64
2022/05/11 05:02:04;;;;;;;10.15;3.80;;;15.80;99.90;;;;;;5054000;28;20098;-65
2022/05/11 05:04:31;;;;;;;;;;;15.80;99.90;;;;;;5044300;28;20037;-63
2022/05/11 05:06:57;;;;;;;6.13;3.72;;;15.90;99.90;;;;;;5047973;28;19973;-63
2022/05/11 05:09:22;;;;;;;;;;;16.00;99.90;;;;;;5046802;28;20057;-63
2022/05/11 05:11:49;;;;;;;10.05;3.90;;;16.10;99.90;;;;;;5049654;28;19939;-64
2022/05/11 05:14:15;;;;;;;9.88;4.20;;;16.20;99.90;;;;;;5047600;28;20420;-64
2022/05/11 05:16:41;;;;;;;9.13;4.15;;;16.20;99.90;;;;;;5051254;28;20714;-63
2022/05/11 05:19:07;;;;;;;;;;;16.40;99.50;;;;;;5048228;28;20037;-63
2022/05/11 05:21:33;;;;;;;8.70;3.60;;;16.90;98.90;;;;;;5051019;28;20408;-64
2022/05/11 05:23:59;;;;;;;;;;;16.90;98.00;;;;;;5047108;28;20041;-63
2022/05/11 05:26:25;;;;;;;6.32;3.78;;;17.20;97.40;;;;;;5044749;28;20032;-64
2022/05/11 05:31:36;;;;;;;6.45;3.35;;;17.20;97.40;;;;;;5053181;28;20033;-64
2022/05/11 05:34:02;;;;;;;7.20;3.65;;;17.10;97.40;;;;;;5065040;28;20068;-64
2022/05/11 05:36:32;;;;;;;7.85;3.53;;;17.40;97.20;;;;;;5066328;28;20044;-64
2022/05/11 05:38:58;;;;;;;4.05;3.08;;;17.60;96.70;;;;;;5066401;28;20048;-64
2022/05/11 05:41:25;;;;;;;;;;;17.60;96.40;;;;;;5065889;28;20047;-64
2022/05/11 05:43:50;;;;;;;5.00;3.27;;;17.80;96.40;;;;;;5065762;28;19924;-63
2022/05/11 05:46:17;;;;;;;6.10;3.60;;;17.90;95.80;;;;;;5066123;28;20098;-64
2022/05/11 05:48:44;;;;;;;6.43;3.20;;;18.80;93.90;;;;;;5065928;28;20506;-64
2022/05/11 05:51:12;;;;;;;11.48;3.17;;;19.20;93.70;;;;;;5065179;28;20033;-64
2022/05/11 05:53:41;;;;;;;4.72;3.03;;;19.30;93.00;;;;;;5066388;28;20499;-64
2022/05/11 05:56:09;;;;;;;5.50;3.00;;;19.40;92.70;;;;;;5066033;28;20127;-63
2022/05/11 05:58:35;;;;;;;5.38;3.15;;;19.70;92.30;;;;;;5065964;28;20693;-65
2022/05/11 06:01:02;;;;;;;8.07;2.50;;;20.80;90.60;;;;;;5062109;28;20079;-65
2022/05/11 06:03:30;;;;;;;7.45;2.70;;;22.10;86.70;;;;;;5064657;28;20120;-64
2022/05/11 06:05:55;;;;;;;5.18;2.42;;;22.90;80.70;;;;;;5065666;28;20040;-64
2022/05/11 06:08:23;;;;;;;3.83;2.60;;;23.30;79.00;;;;;;5065776;28;20110;-64
2022/05/11 06:10:49;;;;;;;5.32;2.83;;;23.10;78.10;;;;;;5065519;28;20040;-64
2022/05/11 06:13:17;;;;;;;12.85;2.72;;;22.40;80.50;;;;;;5065403;28;20115;-64
2022/05/11 06:15:43;;;;;;;6.75;3.13;;;21.70;81.70;;;;;;5065254;28;20052;-63
2022/05/11 06:18:10;;;;;;;5.22;2.83;;;21.50;82.20;;;;;;5065838;28;20040;-66
2022/05/11 06:20:37;;;;;;;6.72;3.00;;;21.70;82.30;;;;;;5064529;28;20044;-64
2022/05/11 06:23:03;;;;;;;7.03;2.85;;;22.30;79.10;;;;;;5065386;28;20400;-64
2022/05/11 06:25:37;;;;;;;7.13;3.13;;;23.40;75.80;;;;;;5065337;28;20147;-65
2022/05/11 06:28:04;;;;;;;4.82;2.40;;;24.10;73.90;;;;;;5065304;28;20098;-64
2022/05/11 06:30:30;;;;;;;6.40;2.22;;;23.90;72.60;;;;;;5063788;28;20048;-64
2022/05/11 06:32:56;;;;;;;11.02;2.70;;;24.10;73.60;;;;;;5063725;28;20029;-63
2022/05/11 06:35:22;;;;;;;5.80;2.97;;;23.30;73.20;;;;;;5063531;28;20054;-64
2022/05/11 06:37:51;;;;;;;10.30;3.40;;;22.70;75.20;;;;;;5058355;28;20127;-64
2022/05/11 06:40:18;;;;;;;4.75;2.50;;;22.20;75.80;;;;;;5064885;28;20041;-64
2022/05/11 06:42:43;;;;;;;7.28;3.33;;;22.00;76.90;;;;;;5064944;28;20076;-64
2022/05/11 06:45:10;;;;;;;5.22;2.65;;;21.70;78.10;;;;;;5058527;28;20457;-64
2022/05/11 06:47:36;;;;;;;6.35;2.47;;;21.50;79.70;;;;;;5060697;28;20087;-64
2022/05/11 06:50:02;;;;;;;4.60;2.33;;;21.90;77.40;;;;;;5066535;28;20040;-64
2022/05/11 06:52:28;;;;;;;5.72;2.40;;;22.50;77.00;;;;;;5068369;28;20044;-64
2022/05/11 07:00:28;;;;;;;5.93;2.53;;;25.90;66.00;;;;;;5063112;28;20477;-65
2022/05/11 07:02:54;;;;;;;7.00;2.42;;;26.60;61.70;;;;;;5065287;28;20041;-67
2022/05/11 07:05:19;;;;;;;13.38;3.92;;;27.50;61.60;;;;;;5063032;28;20547;-65
2022/05/11 07:07:45;;;;;;;7.00;3.13;;;27.60;58.90;;;;;;5064824;28;20040;-65
2022/05/11 07:10:11;;;;;;;12.75;3.15;;;27.70;59.90;;;;;;5064650;28;20129;-65
2022/05/11 07:12:43;;;;;;;6.47;2.60;;;27.20;59.70;;;;;;5064260;28;20032;-66
2022/05/11 07:15:09;;;;;;;6.45;2.72;;;27.20;59.50;;;;;;5068725;28;20361;-64
2022/05/11 07:17:46;;;;;;;30.63;7.15;;;27.00;58.30;;;;;;5075226;28;20152;-64
2022/05/11 07:20:15;;;;;;;30.63;8.02;;;26.60;67.80;;;;;;5064007;28;20033;-64
2022/05/11 07:22:41;;;;;;;13.55;4.18;;;26.10;63.80;;;;;;5074107;28;20048;-63
2022/05/11 07:25:09;;;;;;;4.43;2.38;;;26.10;63.70;;;;;;5071190;28;20101;-64
2022/05/11 07:27:36;;;;;;;2.75;2.30;;;26.60;59.80;;;;;;5065425;28;20083;-63
2022/05/11 07:30:03;;;;;;;3.00;1.65;;;27.10;59.50;;;;;;5069244;28;20063;-67
2022/05/11 07:32:29;;;;;;;6.38;2.08;;;27.30;58.60;;;;;;5078857;28;20052;-66
2022/05/11 07:34:55;;;;;;;3.80;1.92;;;27.60;57.40;;;;;;5073535;28;20032;-67
2022/05/11 07:37:21;;;;;;;8.70;3.05;;;26.60;57.30;;;;;;5072813;28;20057;-67
2022/05/11 07:39:46;;;;;;;4.70;2.00;;;26.30;60.40;;;;;;5072191;28;20048;-66
2022/05/11 07:42:12;;;;;;;5.80;2.03;;;26.10;59.90;;;;;;5073501;28;20573;-67
2022/05/11 07:44:38;;;;;;;15.45;2.40;;;25.70;61.10;;;;;;5068548;28;20051;-67
2022/05/11 07:47:04;;;;;;;5.32;2.10;;;25.50;59.70;;;;;;5068165;28;20571;-66
2022/05/11 07:49:30;;;;;;;4.97;2.30;;;25.40;62.10;;;;;;5068415;28;20048;-66
2022/05/11 07:51:56;;;;;;;2.95;2.00;;;25.70;59.90;;;;;;5067086;28;20149;-66
2022/05/11 07:54:21;;;;;;;5.35;2.05;;;26.40;58.70;;;;;;5068606;28;20052;-67
2022/05/11 08:02:16;;;;;;;3.63;2.00;;;29.10;53.20;;;;;;5066956;28;20039;-66
2022/05/11 08:04:42;;;;;;;3.20;2.00;;;29.70;51.30;;;;;;5068417;28;20408;-67
2022/05/11 08:07:09;;;;;;;4.28;1.95;;;30.00;50.50;;;;;;5080009;28;20495;-67
2022/05/11 08:09:35;;;;;;;6.20;2.83;;;29.80;50.60;;;;;;5077671;28;20051;-67
2022/05/11 08:12:01;;;;;;;5.95;2.58;;;29.60;49.90;;;;;;5078802;28;20031;-66
2022/05/11 08:14:27;;;;;;;6.53;2.28;;;29.70;49.30;;;;;;5083104;28;20412;-66
2022/05/11 08:16:52;;;;;;;5.97;2.15;;;29.60;49.40;;;;;;5067431;28;20124;-67
2022/05/11 08:19:20;;;;;;;5.45;2.22;;;30.10;49.00;;;;;;5064073;28;20740;-68
2022/05/11 08:21:48;;;;;;;4.47;1.95;;;29.90;48.90;;;;;;5063530;28;20118;-68
2022/05/11 08:24:14;;;;;;;4.20;2.03;;;30.10;48.30;;;;;;5072278;28;20051;-68
2022/05/11 08:26:40;;;;;;;5.38;1.88;;;30.00;47.20;;;;;;5074470;28;20466;-68
2022/05/11 08:29:07;;;;;;;5.10;2.30;;;30.50;48.90;;;;;;5075064;28;20099;-68
2022/05/11 08:34:17;;;;;;;7.80;2.47;;;30.60;47.80;;;;;;5079613;28;20107;-68
2022/05/11 08:36:45;;;;;;;7.00;1.90;;;29.80;48.40;;;;;;5077761;28;20716;-67
2022/05/11 08:39:12;;;;;;;3.58;2.28;;;29.70;48.30;;;;;;5073605;28;20028;-68
2022/05/11 08:41:47;;;;;;;4.03;2.40;;;29.40;48.40;;;;;;5077333;28;20075;-68
2022/05/11 08:44:33;;;;;;;13.82;2.20;;;29.50;49.00;;;;;;5066841;28;20056;-67
2022/05/11 08:47:16;;;;;;;9.27;2.75;;;29.50;49.70;;;;;;5061602;28;20048;-67
2022/05/11 08:50:10;;;;;;;5.13;2.78;;;28.40;49.00;;;;;;5067401;28;20045;-68
2022/05/11 08:52:48;;;;;;;7.05;2.38;;;27.20;52.40;;;;;;5046849;28;20079;-67
2022/05/11 08:55:39;;;;;;;6.93;2.70;;;26.20;55.40;;;;;;5056632;28;20536;-67
2022/05/11 08:58:11;;;;;;;9.70;2.88;;;25.40;57.20;;;;;;5068683;28;20083;-67
2022/05/11 09:00:41;;;;;;;9.10;2.58;;;24.90;58.20;;;;;;5075447;28;20036;-67
2022/05/11 09:03:35;;;;;;;8.80;3.10;;;24.60;58.20;;;;;;5070772;28;20120;-67
2022/05/11 09:06:05;;;;;;;6.72;2.95;;;24.20;58.50;;;;;;5060523;28;20051;-67
2022/05/11 09:08:37;;;;;;;37.42;3.20;;;24.00;60.20;;;;;;5067176;28;20048;-67
2022/05/11 09:11:04;;;;;;;12.65;2.65;;;24.10;60.40;;;;;;5065773;28;20086;-67
2022/05/11 09:13:30;;;;;;;6.18;3.08;;;24.00;60.90;;;;;;5066692;28;20102;-67
2022/05/11 09:16:02;;;;;;;5.68;2.58;;;24.00;61.20;;;;;;5065361;28;20127;-67
2022/05/11 09:18:30;;;;;;;5.78;3.05;;;24.10;60.20;;;;;;5066942;28;20040;-68
2022/05/11 09:20:57;;;;;;;4.80;2.58;;;23.90;59.50;;;;;;5065665;28;20042;-68
2022/05/11 09:23:34;;;;;;;6.47;2.40;;;23.70;60.70;;;;;;5065963;28;20063;-68
2022/05/11 09:26:08;;;;;;;14.13;3.20;;;23.70;60.10;;;;;;5062741;28;20044;-67
2022/05/11 09:28:36;;;;;;;6.25;2.40;;;23.60;59.70;;;;;;5074159;28;20573;-67
2022/05/11 09:31:05;;;;;;;4.82;2.88;;;23.60;61.90;;;;;;5068809;28;20036;-67
2022/05/11 09:33:39;;;;;;;12.68;3.88;;;23.80;60.80;;;;;;5074720;28;20091;-68
2022/05/11 09:36:07;;;;;;;6.32;2.25;;;23.80;60.70;;;;;;5073110;28;20040;-68
2022/05/11 09:38:42;;;;;;;12.27;2.70;;;23.90;59.70;;;;;;5066626;28;20671;-67
2022/05/11 09:41:19;;;;;;;11.02;2.85;;;23.90;63.00;;;;;;5054105;28;20033;-68
2022/05/11 09:43:50;;;;;;;5.07;2.25;;;24.10;61.30;;;;;;5075040;28;20051;-67
2022/05/11 09:46:33;;;;;;;4.15;2.15;;;24.20;59.50;;;;;;5069182;28;20116;-67
2022/05/11 09:49:35;;;;;;;10.93;2.70;;;24.20;58.80;;;;;;5066575;28;20095;-67
2022/05/11 09:52:02;;;;;;;8.32;2.95;;;24.20;58.30;;;;;;5072455;28;20115;-69
2022/05/11 09:54:37;;;;;;;3.72;2.28;;;24.10;58.90;;;;;;5083552;28;20040;-67
2022/05/11 09:57:23;;;;;;;7.60;2.30;;;24.20;60.20;;;;;;5064129;28;20048;-67
2022/05/11 09:59:52;;;;;;;4.45;2.97;;;24.00;58.70;;;;;;5071049;28;20071;-67
2022/05/11 10:02:30;;;;;;;4.00;2.63;;;24.00;58.10;;;;;;5067841;28;20032;-67
2022/05/11 10:05:14;;;;;;;8.10;3.00;;;23.80;58.60;;;;;;5065677;28;20048;-67
2022/05/11 10:08:12;;;;;;;10.25;2.38;;;23.90;58.40;;;;;;5063341;28;20050;-68
2022/05/11 10:10:45;;;;;;;13.95;2.67;;;24.00;58.70;;;;;;5071584;28;20442;-67
2022/05/11 10:13:11;;;;;;;4.30;2.45;;;24.00;59.60;;;;;;5060915;28;20504;-65
2022/05/11 10:24:18;;;;;;;8.90;3.03;;;24.00;59.50;;;;;;5076062;28;20504;-64
2022/05/11 10:26:54;;;;;;;6.25;2.55;;;24.00;58.20;;;;;;5077385;28;20105;-64
2022/05/11 10:29:47;;;;;;;6.05;2.50;;;24.20;59.90;;;;;;5075699;28;20107;-63
2022/05/11 10:32:12;;;;;;;7.78;2.45;;;24.30;58.80;;;;;;5073689;28;20039;-64
2022/05/11 10:35:01;;;;;;;3.80;2.72;;;24.30;60.40;;;;;;5065232;28;20040;-65
2022/05/11 10:37:37;;;;;;;8.35;2.80;;;24.40;59.30;;;;;;5065518;28;20037;-65
2022/05/11 10:40:09;;;;;;;3.80;2.60;;;24.50;58.70;;;;;;5064718;28;20068;-62
2022/05/11 10:42:36;;;;;;;4.90;2.58;;;24.50;59.00;;;;;;5063947;28;20097;-66
2022/05/11 10:45:19;;;;;;;6.85;3.05;;;24.30;59.10;;;;;;5064655;28;20515;-65
2022/05/11 10:47:51;;;;;;;18.08;3.95;;;24.40;59.30;;;;;;5072995;28;20044;-63
2022/05/11 10:50:27;;;;;;;5.75;3.17;;;24.20;60.00;;;;;;5078094;28;20028;-65
2022/05/11 10:53:23;;;;;;;5.70;2.40;;;24.20;61.30;;;;;;5070381;28;20122;-65
2022/05/11 10:56:35;;;;;;;13.77;2.78;;;24.30;60.20;;;;;;5070860;28;20070;-69
2022/05/11 10:59:07;;;;;;;9.45;2.65;;;24.40;61.40;;;;;;5053529;28;20040;-65
2022/05/11 11:01:56;;;;;;;5.57;3.03;;;24.50;61.40;;;;;;5061040;28;20044;-63
2022/05/11 11:04:52;;;;;;;7.55;2.70;;;24.40;59.40;;;;;;5035015;28;20483;-64
2022/05/11 11:07:36;;;;;;;10.73;3.13;;;24.30;60.90;;;;;;5060948;28;20044;-64
2022/05/11 11:10:08;;;;;;;6.03;2.95;;;24.40;60.10;;;;;;5064240;28;20036;-64
2022/05/11 11:13:11;;;;;;;3.22;2.45;;;24.30;61.70;;;;;;5061212;28;20037;-64
2022/05/11 11:15:41;;;;;;;5.70;3.03;;;24.40;59.80;;;;;;5064644;28;20032;-64
2022/05/11 11:18:11;;;;;;;6.43;3.08;;;24.00;60.20;;;;;;5060723;28;20124;-64
2022/05/11 11:20:40;;;;;;;3.85;2.90;;;24.10;62.70;;;;;;5060892;28;20049;-64
2022/05/11 11:23:18;;;;;;;7.05;2.40;;;24.30;61.00;;;;;;5063283;28;20119;-64
2022/05/11 11:25:51;;;;;;;9.38;3.08;;;24.50;60.90;;;;;;5094368;28;20045;-64
2022/05/11 11:28:28;;;;;;;4.03;2.70;;;24.50;60.20;;;;;;5061369;28;20036;-64
2022/05/11 11:31:00;;;;;;;5.25;3.33;;;24.30;59.80;;;;;;5061633;28;20033;-64
2022/05/11 11:33:31;;;;;;;20.95;3.28;;;24.30;61.70;;;;;;5059732;28;20044;-64
2022/05/11 11:35:57;;;;;;;8.88;2.70;;;24.40;63.20;;;;;;5070169;28;20412;-64
2022/05/11 11:38:29;;;;;;;5.55;3.22;;;24.60;63.30;;;;;;5062636;28;20544;-64
2022/05/11 11:41:15;;;;;;;6.20;2.95;;;24.60;60.00;;;;;;5065603;28;20062;-64
2022/05/11 11:43:52;;;;;;;4.37;2.83;;;24.40;62.90;;;;;;5066475;28;20067;-64
2022/05/11 11:46:44;;;;;;;7.05;3.40;;;24.50;61.70;;;;;;5064698;28;20072;-63
2022/05/11 11:49:19;;;;;;;4.22;2.88;;;24.50;62.60;;;;;;5073538;28;20079;-64
2022/05/11 11:51:52;;;;;;;9.03;3.60;;;24.40;62.60;;;;;;5065114;28;20045;-64
2022/05/11 11:54:26;;;;;;;7.70;3.20;;;24.30;61.90;;;;;;5064490;28;20119;-63
2022/05/11 11:56:54;;;;;;;6.22;2.75;;;24.60;62.70;;;;;;5064459;28;20067;-63
2022/05/11 11:59:23;;;;;;;8.18;3.25;;;24.70;61.40;;;;;;5064450;28;20063;-63
2022/05/11 12:01:51;;;;;;;5.70;2.70;;;24.70;63.40;;;;;;5062927;28;20083;-63
2022/05/11 12:04:28;;;;;;;10.73;3.25;;;24.60;62.10;;;;;;5064418;28;20119;-64
2022/05/11 12:15:32;;;;;;;6.43;3.30;;;24.50;64.00;;;;;;5065603;28;20036;-64
2022/05/11 12:17:58;;;;;;;5.35;3.15;;;24.20;63.20;;;;;;5067921;28;20052;-64
2022/05/11 12:20:25;;;;;;;7.70;3.00;;;24.20;63.60;;;;;;5066939;28;20040;-63
2022/05/11 12:22:53;;;;;;;7.03;3.15;;;24.00;64.20;;;;;;5067828;28;20037;-64
2022/05/11 12:25:26;;;;;;;4.50;2.38;;;23.90;63.30;;;;;;5063162;28;20127;-64
2022/05/11 12:27:53;;;;;;;9.23;3.10;;;24.00;63.40;;;;;;5068150;28;20075;-64
2022/05/11 12:30:51;;;;;;;9.27;3.33;;;23.90;64.60;;;;;;5065886;28;20048;-64
2022/05/11 12:33:27;;;;;;;6.80;2.83;;;24.10;62.90;;;;;;5065521;28;20474;-64
2022/05/11 12:35:53;;;;;;;;;;;24.10;62.60;;;;;;5070772;28;20028;-64
2022/05/11 12:38:37;;;;;;;10.20;2.70;;;24.20;62.10;;;;;;5073066;28;19917;-64
2022/05/11 12:41:10;;;;;;;4.95;2.70;;;24.30;62.70;;;;;;5074749;28;20119;-64
2022/05/11 12:43:39;;;;;;;5.60;3.00;;;24.10;62.30;;;;;;5067587;28;20036;-64
2022/05/11 12:46:07;;;;;;;10.75;2.83;;;24.20;63.00;;;;;;5067370;28;20040;-64
2022/05/11 12:48:36;;;;;;;22.63;3.65;;;24.40;61.80;;;;;;5067258;28;20624;-64
2022/05/11 12:51:06;;;;;;;7.90;2.72;;;24.60;61.70;;;;;;5066380;28;20116;-63
2022/05/11 12:53:36;;;;;;;5.07;2.90;;;24.50;61.60;;;;;;5073419;28;20072;-63
2022/05/11 12:56:13;;;;;;;8.90;2.75;;;24.50;63.30;;;;;;5069706;28;20064;-63
2022/05/11 12:58:45;;;;;;;4.38;2.85;;;24.60;61.30;;;;;;5064873;28;20113;-64
2022/05/11 13:01:14;;;;;;;7.97;3.67;;;24.50;63.30;;;;;;5065325;28;20063;-63
2022/05/11 13:03:42;;;;;;;9.32;2.75;;;24.30;61.80;;;;;;5065896;28;20491;-64
2022/05/11 13:06:18;;;;;;;9.75;3.20;;;24.40;61.70;;;;;;5066613;28;20076;-64
2022/05/11 13:08:46;;;;;;;;;;;24.50;61.90;;;;;;5067297;28;20044;-64
2022/05/11 13:11:15;;;;;;;4.60;2.85;;;24.60;61.20;;;;;;5066151;28;19963;-64
2022/05/11 13:13:44;;;;;;;9.05;3.28;;;24.80;60.70;;;;;;5066571;28;20044;-63
2022/05/11 13:16:32;;;;;;;8.15;3.20;;;24.80;59.80;;;;;;5064256;28;20045;-64
2022/05/11 13:19:15;;;;;;;4.97;3.17;;;24.70;60.00;;;;;;5069188;28;20120;-64
2022/05/11 13:21:46;;;;;;;11.10;2.42;;;24.70;60.30;;;;;;5076327;28;20123;-63
2022/05/11 13:24:11;;;;;;;7.35;2.85;;;24.80;59.30;;;;;;5083690;28;20110;-63
2022/05/11 13:26:44;;;;;;;6.50;2.78;;;24.60;59.30;;;;;;5064769;28;20349;-64
2022/05/11 13:29:26;;;;;;;8.15;3.10;;;24.40;59.80;;;;;;5066946;28;20040;-64
2022/05/11 13:32:05;;;;;;;7.65;2.70;;;24.20;59.30;;;;;;5079519;28;20036;-64
2022/05/11 13:34:33;;;;;;;10.70;2.88;;;24.20;58.70;;;;;;5066321;28;20603;-63
2022/05/11 13:37:01;;;;;;;13.45;3.05;;;24.20;59.60;;;;;;5066581;28;20464;-64
2022/05/11 13:39:30;;;;;;;15.60;3.20;;;24.20;59.20;;;;;;5065562;28;20040;-63
2022/05/11 13:42:21;;;;;;;5.90;2.55;;;24.20;58.70;;;;;;5073620;28;20036;-63
2022/05/11 13:44:56;;;;;;;11.50;2.58;;;24.20;59.20;;;;;;5072876;28;20044;-64
2022/05/11 13:48:19;;;;;;;14.98;2.80;;;24.20;59.20;;;;;;5045767;28;20052;-63
2022/05/11 13:50:48;;;;;;;20.30;3.78;;;24.40;59.30;;;;;;5053759;28;20053;-63